Time;durP1;ratioP1;P1;durP2;ratioP2;P2;SDS_P1;SDS_P2;PMS_P1;PMS_P2;Temp;Humidity;BMP_temperature;BMP_pressure;BME280_temperature;BME280_humidity;BME280_pressure;Samples;Min_cycle;Max_cycle;Signal;HPM_P1;HPM_P2
2022/07/06 00:00:24;;;;;;;1.35;1.15;;;;;;;15.37;100.00;98992.44;5022730;28;20034;-64
2022/07/06 00:03:09;;;;;;;2.08;1.70;;;;;;;15.33;99.88;98992.84;5043532;28;20057;-64
2022/07/06 00:05:54;;;;;;;3.15;1.60;;;;;;;15.35;99.93;98993.53;5031115;28;20076;-64
2022/07/06 00:08:39;;;;;;;1.75;1.23;;;;;;;15.36;99.64;99000.50;5023911;28;20117;-64
2022/07/06 00:11:24;;;;;;;2.17;1.33;;;;;;;15.35;100.00;99017.31;5027481;28;20046;-64
2022/07/06 00:14:09;;;;;;;4.68;1.88;;;;;;;15.38;100.00;99019.69;5027960;28;20438;-64
2022/07/06 00:16:53;;;;;;;1.83;1.30;;;;;;;15.28;100.00;99019.63;5027117;28;20147;-64
2022/07/06 00:19:38;;;;;;;1.83;1.42;;;;;;;15.07;100.00;99011.69;5017236;28;20046;-64
2022/07/06 00:22:22;;;;;;;3.42;1.48;;;;;;;14.99;99.69;99009.72;5031185;28;20538;-64
2022/07/06 00:25:08;;;;;;;2.15;1.50;;;;;;;14.92;99.71;99009.38;5046899;28;20049;-65
2022/07/06 00:27:52;;;;;;;1.20;0.93;;;;;;;14.91;99.05;99018.28;5019251;28;20050;-64
2022/07/06 00:30:37;;;;;;;2.25;1.17;;;;;;;14.95;98.08;99016.22;5032742;28;20084;-64
2022/07/06 00:33:24;;;;;;;2.72;1.40;;;;;;;15.08;98.22;99021.31;5030761;28;20501;-65
2022/07/06 00:36:09;;;;;;;3.65;1.50;;;;;;;15.05;98.86;99014.47;5032863;28;20096;-64
2022/07/06 00:38:53;;;;;;;4.97;1.48;;;;;;;14.97;97.25;99011.63;5046232;28;20045;-64
2022/07/06 00:41:38;;;;;;;5.28;1.60;;;;;;;14.82;97.94;99014.56;5033991;28;20077;-64
2022/07/06 00:44:23;;;;;;;2.80;1.55;;;;;;;14.78;98.75;99018.41;5040584;28;20048;-63
2022/07/06 00:47:08;;;;;;;4.10;1.45;;;;;;;14.73;97.44;99020.59;5018169;28;20087;-64
2022/07/06 00:52:59;;;;;;;2.58;1.33;;;;;;;14.93;96.45;99018.13;5025847;28;20065;-63
2022/07/06 00:55:44;;;;;;;2.67;1.48;;;;;;;14.98;94.46;99019.41;5039758;28;20056;-65
2022/07/06 00:58:29;;;;;;;1.83;1.30;;;;;;;14.83;94.40;99016.28;5046685;28;20419;-63
2022/07/06 01:01:14;;;;;;;3.55;1.50;;;;;;;14.81;94.70;99019.97;5032437;28;20037;-63
2022/07/06 01:03:59;;;;;;;2.55;1.50;;;;;;;14.69;95.78;99020.00;5031158;28;20511;-62
2022/07/06 01:06:45;;;;;;;3.60;1.52;;;;;;;14.58;96.83;99022.66;5031257;28;20568;-63
2022/07/06 01:09:31;;;;;;;3.28;1.35;;;;;;;14.63;97.08;99025.78;5031846;28;20041;-63
2022/07/06 01:12:15;;;;;;;2.47;1.63;;;;;;;14.65;96.78;99021.22;5018000;28;20039;-63
2022/07/06 01:15:01;;;;;;;2.72;1.50;;;;;;;14.68;95.85;99028.03;5017688;28;20050;-64
2022/07/06 01:17:46;;;;;;;1.52;1.30;;;;;;;14.78;95.32;99026.31;5021738;28;20051;-64
2022/07/06 01:20:31;;;;;;;4.93;1.40;;;;;;;14.87;94.04;99022.09;5032622;28;20112;-63
2022/07/06 01:23:16;;;;;;;2.85;1.40;;;;;;;14.99;93.91;99021.09;4998050;28;20057;-65
2022/07/06 01:26:00;;;;;;;3.53;1.40;;;;;;;14.99;92.89;99031.66;5016978;28;20053;-64
2022/07/06 01:28:48;;;;;;;2.80;1.70;;;;;;;14.94;92.19;99031.19;5044805;28;20084;-64
2022/07/06 01:31:33;;;;;;;1.48;1.38;;;;;;;14.92;92.73;99024.38;5043552;28;20041;-64
2022/07/06 01:34:18;;;;;;;1.60;1.20;;;;;;;15.00;92.91;99021.94;5018014;28;20056;-64
2022/07/06 01:37:03;;;;;;;2.08;1.40;;;;;;;14.97;91.99;99023.03;5021686;28;20073;-65
2022/07/06 01:39:47;;;;;;;1.67;1.20;;;;;;;14.87;92.07;99027.38;5017218;28;20144;-65
2022/07/06 01:42:32;;;;;;;1.67;1.23;;;;;;;14.88;91.12;99031.72;5028425;28;20041;-67
2022/07/06 01:45:17;;;;;;;1.98;1.25;;;;;;;14.89;91.74;99033.38;5020951;28;20038;-63
2022/07/06 01:48:06;;;;;;;5.20;1.35;;;;;;;14.85;91.97;99034.59;5014089;28;20064;-63
2022/07/06 01:50:50;;;;;;;3.00;1.20;;;;;;;14.93;92.28;99031.31;5017940;28;20501;-64
2022/07/06 01:53:36;;;;;;;4.82;1.50;;;;;;;14.91;92.82;99034.09;5029328;28;20446;-64
2022/07/06 01:56:22;;;;;;;2.55;1.20;;;;;;;14.86;90.95;99037.13;5046082;28;20120;-64
2022/07/06 01:59:11;;;;;;;3.55;1.40;;;;;;;14.96;91.32;99029.28;5017375;28;20050;-64
2022/07/06 02:01:56;;;;;;;3.78;1.40;;;;;;;15.10;90.59;99038.66;5003982;28;20112;-64
2022/07/06 02:04:41;;;;;;;2.83;1.38;;;;;;;15.14;90.38;99033.97;5017605;28;20045;-64
2022/07/06 02:07:26;;;;;;;3.77;1.30;;;;;;;15.26;87.68;99038.22;5015323;28;20046;-64
2022/07/06 02:10:10;;;;;;;2.70;1.17;;;;;;;15.28;87.42;99040.72;5030029;28;20130;-64
2022/07/06 02:12:55;;;;;;;3.58;1.15;;;;;;;15.31;87.71;99042.28;5002334;28;20050;-64
2022/07/06 02:15:40;;;;;;;2.35;1.60;;;;;;;15.33;87.66;99046.47;5007458;28;20038;-64
2022/07/06 02:18:25;;;;;;;2.65;1.45;;;;;;;15.43;88.98;99043.03;5015359;28;20383;-64
2022/07/06 02:21:10;;;;;;;3.53;1.67;;;;;;;15.41;87.67;99045.81;5031414;28;20045;-64
2022/07/06 02:23:54;;;;;;;1.63;1.40;;;;;;;15.36;86.28;99040.06;5029658;28;20160;-65
2022/07/06 02:26:39;;;;;;;2.83;1.40;;;;;;;15.45;88.31;99039.31;5002700;28;20104;-65
2022/07/06 02:29:25;;;;;;;2.75;1.38;;;;;;;15.54;86.74;99028.94;5021688;28;20054;-64
2022/07/06 02:32:11;;;;;;;2.40;1.30;;;;;;;15.57;85.62;99028.69;5021536;28;20065;-64
2022/07/06 02:34:56;;;;;;;2.05;1.20;;;;;;;15.62;85.40;99029.09;5003130;28;20462;-64
2022/07/06 02:37:41;;;;;;;3.53;1.50;;;;;;;15.71;85.96;99025.69;5025728;28;20068;-65
2022/07/06 02:40:25;;;;;;;4.07;1.48;;;;;;;15.72;86.17;99023.88;5036944;28;20497;-64
2022/07/06 02:43:10;;;;;;;3.13;1.50;;;;;;;15.66;85.99;99027.88;5016600;28;20049;-64
2022/07/06 02:45:56;;;;;;;1.33;1.13;;;;;;;15.75;87.28;99034.16;5018211;28;20508;-64
2022/07/06 02:48:41;;;;;;;2.05;1.15;;;;;;;15.59;88.81;99032.84;5022220;28;20065;-64
2022/07/06 02:51:25;;;;;;;1.60;1.38;;;;;;;15.58;86.48;99031.19;5016170;28;20092;-64
2022/07/06 02:54:11;;;;;;;3.33;1.20;;;;;;;15.59;85.79;99030.22;5042807;28;20077;-64
2022/07/06 02:56:55;;;;;;;3.05;1.30;;;;;;;15.55;85.94;99026.19;5031179;28;20041;-64
2022/07/06 02:59:40;;;;;;;2.97;1.60;;;;;;;15.53;87.04;99028.09;5016197;28;20116;-64
2022/07/06 03:02:25;;;;;;;1.52;1.30;;;;;;;15.59;86.52;99030.22;5027351;28;20041;-64
2022/07/06 03:05:10;;;;;;;3.83;1.30;;;;;;;15.51;87.35;99027.38;5026300;28;20045;-64
2022/07/06 03:07:55;;;;;;;1.70;1.25;;;;;;;15.51;85.87;99032.66;5005717;28;20045;-64
2022/07/06 03:10:40;;;;;;;2.80;1.65;;;;;;;15.57;85.19;99024.22;5019138;28;20065;-64
2022/07/06 03:13:25;;;;;;;1.83;1.33;;;;;;;15.81;85.98;99020.47;5021884;28;20068;-64
2022/07/06 03:16:09;;;;;;;3.63;1.40;;;;;;;15.78;84.32;99023.38;5019115;28;20057;-64
2022/07/06 03:18:54;;;;;;;7.20;1.10;;;;;;;15.91;85.72;99023.13;5020716;28;20482;-64
2022/07/06 03:21:39;;;;;;;2.35;1.20;;;;;;;15.72;85.53;99024.72;5034117;28;20077;-64
2022/07/06 03:24:23;;;;;;;3.45;1.55;;;;;;;15.78;84.42;99023.38;5020079;28;20056;-64
2022/07/06 03:27:08;;;;;;;2.13;1.58;;;;;;;15.79;83.98;99021.53;5031350;28;20478;-65
2022/07/06 03:29:53;;;;;;;3.03;1.67;;;;;;;15.78;83.49;99020.72;5020115;28;20060;-65
2022/07/06 03:32:40;;;;;;;3.03;1.52;;;;;;;15.86;82.76;99026.16;4997693;28;20065;-64
2022/07/06 03:35:25;;;;;;;3.60;1.42;;;;;;;15.72;83.07;99015.94;5005140;28;20041;-64
2022/07/06 03:38:11;;;;;;;2.63;1.40;;;;;;;15.88;82.51;99020.72;4979007;28;20046;-64
2022/07/06 03:40:58;;;;;;;3.55;1.25;;;;;;;15.93;84.62;99013.25;5010064;28;20490;-64
2022/07/06 03:43:43;;;;;;;1.98;1.27;;;;;;;16.26;80.53;99018.38;5006580;28;20041;-64
2022/07/06 03:46:29;;;;;;;1.88;1.05;;;;;;;16.27;81.57;99016.56;5023683;28;20054;-64
2022/07/06 03:49:13;;;;;;;3.45;1.50;;;;;;;16.25;81.31;99014.88;5009704;28;20048;-64
2022/07/06 03:51:59;;;;;;;4.25;1.20;;;;;;;16.09;81.25;99009.31;5018165;28;20053;-64
2022/07/06 03:54:44;;;;;;;3.17;1.40;;;;;;;15.94;81.70;98998.25;5026391;28;20061;-64
2022/07/06 03:57:31;;;;;;;7.20;1.65;;;;;;;15.85;83.38;99007.78;5010740;28;20045;-65
2022/07/06 04:00:20;;;;;;;3.80;1.40;;;;;;;15.86;82.59;99001.56;5013527;28;20042;-64
2022/07/06 04:03:12;;;;;;;3.15;1.40;;;;;;;15.94;83.23;98995.59;5024380;28;20370;-64
2022/07/06 04:06:04;;;;;;;2.47;1.52;;;;;;;15.97;82.17;98998.81;5023567;28;20045;-64
2022/07/06 04:08:50;;;;;;;1.52;1.30;;;;;;;16.06;82.99;98996.38;5013401;28;20042;-64
2022/07/06 04:11:35;;;;;;;3.08;1.50;;;;;;;15.93;83.30;98999.22;5017799;28;20477;-64
2022/07/06 04:14:22;;;;;;;2.75;1.52;;;;;;;16.00;83.09;98990.66;5010297;28;20057;-64
2022/07/06 04:20:11;;;;;;;1.63;1.30;;;;;;;16.18;83.77;98991.78;4995940;28;20049;-65
2022/07/06 04:22:56;;;;;;;2.40;1.55;;;;;;;16.43;82.03;99003.69;5013322;28;20073;-65
2022/07/06 04:25:42;;;;;;;1.65;1.15;;;;;;;16.93;84.80;98998.38;5003128;28;20123;-64
2022/07/06 04:28:27;;;;;;;2.53;1.30;;;;;;;17.13;82.66;98998.38;5030984;28;20053;-64
2022/07/06 04:31:14;;;;;;;2.28;1.52;;;;;;;17.20;83.63;98992.38;5026706;28;20041;-65
2022/07/06 04:34:01;;;;;;;2.10;1.35;;;;;;;17.19;80.06;98996.00;5021564;28;20595;-65
2022/07/06 04:36:47;;;;;;;2.58;1.60;;;;;;;17.17;77.97;98983.91;5033151;28;20041;-65
2022/07/06 04:39:32;;;;;;;2.95;1.30;;;;;;;17.72;79.77;98984.97;5022187;28;20046;-64
2022/07/06 04:42:18;;;;;;;3.28;1.42;;;;;;;17.45;76.32;98990.06;5018631;28;20038;-64
2022/07/06 04:45:04;;;;;;;2.53;1.50;;;;;;;17.69;75.71;98994.03;5046445;28;20057;-63
2022/07/06 04:47:51;;;;;;;3.55;1.50;;;;;;;18.14;77.38;98998.72;5018861;28;20469;-63
2022/07/06 04:50:37;;;;;;;2.33;1.50;;;;;;;17.81;77.42;99005.28;5041558;28;20061;-64
2022/07/06 04:53:24;;;;;;;4.00;1.50;;;;;;;17.84;81.35;98997.03;5008879;28;20103;-64
2022/07/06 04:56:10;;;;;;;5.68;2.15;;;;;;;18.01;75.25;98999.03;5045751;28;20424;-63
2022/07/06 04:58:57;;;;;;;3.30;1.35;;;;;;;17.93;75.32;99018.34;5045904;28;20110;-64
2022/07/06 05:01:43;;;;;;;4.18;1.67;;;;;;;17.91;76.34;99015.84;5009409;28;20160;-64
2022/07/06 05:04:28;;;;;;;3.10;1.70;;;;;;;17.91;78.58;99022.94;5032066;28;20056;-64
2022/07/06 05:07:15;;;;;;;2.00;1.55;;;;;;;17.90;77.15;99015.97;5018535;28;20094;-64
2022/07/06 05:09:59;;;;;;;3.55;1.65;;;;;;;18.16;75.85;99028.56;5032587;28;20095;-65
2022/07/06 05:12:44;;;;;;;2.90;1.58;;;;;;;17.96;73.96;99021.53;5017668;28;20564;-64
2022/07/06 05:15:30;;;;;;;4.63;1.60;;;;;;;18.20;79.68;99016.69;5007415;28;20444;-62
2022/07/06 05:18:15;;;;;;;4.47;1.45;;;;;;;18.74;72.39;99034.47;5032737;28;20486;-63
2022/07/06 05:21:01;;;;;;;1.70;1.42;;;;;;;18.23;74.04;99037.59;5032336;28;20117;-63
2022/07/06 05:23:45;;;;;;;1.90;1.40;;;;;;;18.65;73.47;99030.06;5046363;28;20045;-63
2022/07/06 05:26:30;;;;;;;3.53;1.60;;;;;;;18.87;72.99;99038.56;5031745;28;20069;-64
2022/07/06 05:29:15;;;;;;;2.90;1.42;;;;;;;18.68;74.35;99037.72;5031571;28;20046;-63
2022/07/06 05:32:02;;;;;;;2.33;1.48;;;;;;;18.37;77.15;99027.47;5017306;28;20055;-65
2022/07/06 05:34:47;;;;;;;2.10;1.52;;;;;;;18.27;76.27;99033.66;5018682;28;20050;-63
2022/07/06 05:37:32;;;;;;;3.10;1.58;;;;;;;18.46;78.21;99032.72;5020232;28;20501;-63
2022/07/06 05:40:16;;;;;;;3.28;1.48;;;;;;;18.61;72.52;99028.69;5031754;28;20038;-64
2022/07/06 05:43:01;;;;;;;3.22;1.73;;;;;;;18.53;73.00;99024.97;5045269;28;20041;-64
2022/07/06 05:45:46;;;;;;;5.15;2.03;;;;;;;18.42;74.48;99030.50;5031068;28;20044;-64
2022/07/06 05:51:37;;;;;;;2.22;1.40;;;;;;;18.93;74.80;99038.75;5032360;28;20071;-64
2022/07/06 05:54:22;;;;;;;4.03;1.50;;;;;;;18.88;72.80;99045.53;5031536;28;20059;-64
2022/07/06 05:57:07;;;;;;;3.40;1.70;;;;;;;19.55;69.19;99045.03;5031471;28;20133;-64
2022/07/06 05:59:51;;;;;;;3.67;1.67;;;;;;;19.71;68.68;99056.78;5031105;28;20088;-64
2022/07/06 06:02:41;;;;;;;4.32;1.65;;;;;;;19.90;69.68;99046.88;5045392;28;20470;-65
2022/07/06 06:05:28;;;;;;;2.10;1.33;;;;;;;19.52;68.16;99060.50;5030034;28;20041;-65
2022/07/06 06:08:21;;;;;;;1.83;1.60;;;;;;;19.97;66.75;99055.06;5030725;28;20034;-64
2022/07/06 06:11:05;;;;;;;1.73;1.40;;;;;;;20.22;65.16;99049.88;5030081;28;20128;-65
2022/07/06 06:13:50;;;;;;;2.05;1.30;;;;;;;20.20;65.84;99047.38;5036051;28;20073;-64
2022/07/06 06:16:35;;;;;;;2.13;1.50;;;;;;;20.19;68.11;99041.22;5030458;28;20103;-63
2022/07/06 06:19:20;;;;;;;2.28;1.60;;;;;;;20.34;64.41;99045.06;5044862;28;20389;-64
2022/07/06 06:22:06;;;;;;;3.35;1.50;;;;;;;20.44;64.78;99051.09;5011673;28;20118;-64
2022/07/06 06:24:55;;;;;;;2.90;1.50;;;;;;;20.62;64.89;99043.00;5024810;28;20052;-63
2022/07/06 06:27:39;;;;;;;1.95;1.50;;;;;;;21.04;62.19;99049.19;5030343;28;20041;-64
2022/07/06 06:30:25;;;;;;;2.65;1.40;;;;;;;21.00;63.61;99047.88;5030503;28;20076;-65
2022/07/06 06:33:20;;;;;;;2.65;1.08;;;;;;;20.97;61.84;99050.03;5031353;28;20556;-65
2022/07/06 06:36:05;;;;;;;5.13;1.30;;;;;;;21.47;62.41;99055.31;5044040;28;20492;-64
2022/07/06 06:38:50;;;;;;;2.58;1.42;;;;;;;21.20;63.12;99050.19;5031388;28;20068;-65
2022/07/06 06:41:35;;;;;;;1.77;1.30;;;;;;;21.59;58.85;99063.78;5030472;28;20056;-65
2022/07/06 06:44:22;;;;;;;2.25;1.23;;;;;;;22.06;61.10;99074.69;5019488;28;20044;-64
2022/07/06 06:47:07;;;;;;;1.50;1.30;;;;;;;22.09;57.43;99077.84;5031108;28;20037;-64
2022/07/06 06:49:52;;;;;;;2.80;1.08;;;;;;;22.14;57.84;99072.81;5031784;28;20041;-65
2022/07/06 06:52:36;;;;;;;1.83;1.17;;;;;;;22.56;59.83;99090.44;5029595;28;20068;-65
2022/07/06 06:55:21;;;;;;;3.72;1.33;;;;;;;22.24;59.01;99093.09;5031177;28;20057;-64
2022/07/06 06:58:06;;;;;;;2.25;1.30;;;;;;;22.43;58.88;99094.50;5029692;28;20401;-65
2022/07/06 07:00:51;;;;;;;4.63;1.33;;;;;;;23.26;57.31;99096.66;5021485;28;20048;-65
2022/07/06 07:03:36;;;;;;;2.08;1.20;;;;;;;22.45;63.28;99103.19;5030220;28;20075;-66
2022/07/06 07:06:21;;;;;;;1.65;0.93;;;;;;;23.18;59.87;99080.69;5037908;28;20097;-66
2022/07/06 07:09:06;;;;;;;1.67;1.30;;;;;;;23.50;57.04;99096.66;5019982;28;20080;-66
2022/07/06 07:11:50;;;;;;;1.63;1.00;;;;;;;22.69;60.52;99093.41;5030870;28;20046;-66
2022/07/06 07:14:35;;;;;;;2.13;1.50;;;;;;;23.06;59.22;99085.63;5013832;28;20475;-66
2022/07/06 07:17:20;;;;;;;2.08;1.20;;;;;;;22.80;59.14;99094.81;5030859;28;20426;-67
2022/07/06 07:20:06;;;;;;;2.75;1.60;;;;;;;22.89;59.05;99084.94;5029049;28;20379;-67
2022/07/06 07:22:50;;;;;;;1.85;1.50;;;;;;;22.56;57.95;99091.28;5031101;28;20037;-68
2022/07/06 07:25:38;;;;;;;2.53;1.50;;;;;;;23.52;57.50;99081.25;5030830;28;20141;-67
2022/07/06 07:28:23;;;;;;;2.83;1.58;;;;;;;23.98;55.95;99079.41;5013937;28;20054;-66
2022/07/06 07:31:07;;;;;;;3.70;1.60;;;;;;;24.28;55.15;99079.41;5004309;28;20104;-66
2022/07/06 07:33:53;;;;;;;2.53;1.27;;;;;;;24.07;53.46;99088.19;5013402;28;20501;-67
2022/07/06 07:36:38;;;;;;;3.65;1.30;;;;;;;23.88;55.16;99082.38;5021988;28;20045;-67
2022/07/06 07:39:23;;;;;;;3.20;1.50;;;;;;;23.27;55.68;99070.78;5010245;28;20050;-67
2022/07/06 07:42:08;;;;;;;1.70;1.00;;;;;;;23.73;56.72;99072.50;5027737;28;20091;-67
2022/07/06 07:44:53;;;;;;;2.53;1.45;;;;;;;24.29;56.34;99088.25;5017602;28;20042;-67
2022/07/06 07:47:39;;;;;;;1.90;1.50;;;;;;;24.76;52.82;99079.94;5003809;28;20057;-68
2022/07/06 07:50:23;;;;;;;2.63;1.75;;;;;;;24.19;54.94;99097.41;5016734;28;20042;-67
2022/07/06 07:53:09;;;;;;;2.80;1.60;;;;;;;24.35;53.22;99093.69;5029421;28;20510;-67
2022/07/06 07:55:57;;;;;;;1.85;1.33;;;;;;;25.26;51.77;99093.41;5030118;28;20091;-68
2022/07/06 07:58:41;;;;;;;1.95;1.30;;;;;;;24.87;52.76;99098.19;5016085;28;20048;-66
2022/07/06 08:01:27;;;;;;;2.70;1.27;;;;;;;25.21;52.13;99098.50;5014578;28;20050;-66
2022/07/06 08:04:14;;;;;;;2.45;1.17;;;;;;;25.22;52.60;99102.84;5030048;28;20053;-67
2022/07/06 08:07:00;;;;;;;2.50;1.80;;;;;;;25.16;52.38;99099.09;4997534;28;20513;-66
2022/07/06 08:09:45;;;;;;;2.72;1.58;;;;;;;25.24;52.64;99100.78;5021497;28;20411;-67
2022/07/06 08:12:30;;;;;;;2.35;1.42;;;;;;;25.82;51.83;99102.47;5034055;28;20509;-67
2022/07/06 08:15:21;;;;;;;2.22;1.00;;;;;;;25.76;50.97;99108.63;5038771;28;20063;-67
2022/07/06 08:18:06;;;;;;;3.53;1.70;;;;;;;25.65;51.83;99101.97;5031365;28;20049;-67
2022/07/06 08:20:51;;;;;;;4.55;1.35;;;;;;;26.09;50.25;99099.09;5043471;28;20041;-68
2022/07/06 08:23:36;;;;;;;1.95;1.13;;;;;;;25.81;51.66;99098.13;5018156;28;20091;-67
2022/07/06 08:26:20;;;;;;;2.20;1.63;;;;;;;25.31;52.89;99093.63;5032576;28;20041;-68
2022/07/06 08:29:05;;;;;;;4.72;1.83;;;;;;;25.56;51.82;99089.69;5029812;28;20061;-68
2022/07/06 08:31:49;;;;;;;2.45;1.67;;;;;;;25.78;53.82;99095.84;5021953;28;20037;-68
2022/07/06 08:34:34;;;;;;;2.08;1.58;;;;;;;26.11;50.95;99097.06;5020845;28;20049;-68
2022/07/06 08:37:19;;;;;;;3.75;1.40;;;;;;;25.83;49.48;99088.06;5022055;28;20046;-68
2022/07/06 08:40:05;;;;;;;4.13;1.40;;;;;;;26.74;50.07;99094.38;5025852;28;20382;-68
2022/07/06 08:42:56;;;;;;;2.25;1.20;;;;;;;26.66;48.93;99084.66;5024266;28;20124;-70
2022/07/06 08:45:45;;;;;;;2.70;1.65;;;;;;;26.37;49.80;99100.06;5013191;28;20540;-68
2022/07/06 08:48:37;;;;;;;2.67;1.50;;;;;;;26.14;50.27;99093.97;5032823;28;20497;-68
2022/07/06 08:51:24;;;;;;;1.45;1.30;;;;;;;26.74;48.97;99084.47;5023413;28;20076;-69
2022/07/06 08:54:10;;;;;;;1.30;1.10;;;;;;;27.12;51.53;99093.03;5047139;28;20393;-67
2022/07/06 08:56:56;;;;;;;1.60;1.50;;;;;;;26.05;49.26;99098.66;5033083;28;20474;-68
2022/07/06 08:59:53;;;;;;;4.53;1.90;;;;;;;25.69;50.32;99091.66;5023618;28;20485;-68
2022/07/06 09:02:40;;;;;;;2.88;1.45;;;;;;;26.72;51.85;99081.16;5037069;28;20477;-68
2022/07/06 09:05:43;;;;;;;2.10;1.65;;;;;;;27.82;46.50;99085.50;5046748;28;20060;-68
2022/07/06 09:08:30;;;;;;;2.95;1.50;;;;;;;27.43;48.91;99086.19;5027045;28;20067;-68
2022/07/06 09:11:14;;;;;;;2.70;1.60;;;;;;;26.97;47.09;99088.63;5038602;28;20045;-68
2022/07/06 09:13:59;;;;;;;3.10;1.70;;;;;;;27.60;47.69;99088.44;5033294;28;20073;-68
2022/07/06 09:16:45;;;;;;;2.60;1.40;;;;;;;28.47;43.07;99086.53;5040854;28;20037;-67
2022/07/06 09:19:34;;;;;;;2.95;1.60;;;;;;;27.38;44.49;99078.75;5020730;28;20046;-67
2022/07/06 09:22:32;;;;;;;4.25;1.60;;;;;;;26.74;47.29;99086.31;5013846;28;20038;-68
2022/07/06 09:25:17;;;;;;;2.40;1.30;;;;;;;27.67;48.19;99094.63;5040820;28;20414;-68
2022/07/06 09:28:02;;;;;;;1.58;1.23;;;;;;;28.43;45.29;99085.31;5025097;28;20087;-67
2022/07/06 09:30:46;;;;;;;3.67;1.48;;;;;;;29.00;45.34;99082.69;5042689;28;20041;-67
2022/07/06 09:33:31;;;;;;;3.55;1.42;;;;;;;28.69;44.90;99080.81;5048792;28;20408;-68
2022/07/06 09:36:42;;;;;;;5.65;1.50;;;;;;;27.77;45.34;99076.22;5042994;28;20037;-68
2022/07/06 09:39:28;;;;;;;1.60;1.13;;;;;;;28.71;44.27;99074.16;5032078;28;20410;-69
2022/07/06 09:42:14;;;;;;;3.13;2.03;;;;;;;28.55;41.30;99082.75;5024789;28;20041;-64
2022/07/06 09:45:06;;;;;;;2.53;1.67;;;;;;;27.42;44.21;99069.22;5032000;28;20038;-67
2022/07/06 09:47:50;;;;;;;3.43;1.63;;;;;;;27.04;45.66;99067.97;5030444;28;20079;-68
2022/07/06 09:50:40;;;;;;;4.68;1.88;;;;;;;28.35;42.38;99062.16;5029421;28;20069;-67
2022/07/06 09:53:27;;;;;;;2.78;1.65;;;;;;;29.01;40.69;99065.47;5034249;28;20136;-67
2022/07/06 09:56:13;;;;;;;1.92;1.05;;;;;;;29.82;42.66;99063.91;5024914;28;20377;-68
2022/07/06 09:58:58;;;;;;;1.77;1.40;;;;;;;28.40;41.40;99068.53;5036877;28;20073;-67
2022/07/06 10:01:43;;;;;;;1.60;1.17;;;;;;;29.87;39.47;99071.31;5026998;28;20045;-68
2022/07/06 10:04:29;;;;;;;1.90;1.10;;;;;;;29.41;39.07;99074.25;5046801;28;20045;-68
2022/07/06 10:07:16;;;;;;;1.55;1.23;;;;;;;29.41;39.20;99065.34;5045396;28;20041;-67
2022/07/06 10:10:02;;;;;;;5.22;1.17;;;;;;;30.84;41.58;99066.16;5027624;28;20137;-69
2022/07/06 10:12:50;;;;;;;2.70;1.20;;;;;;;30.15;37.49;99082.63;5031493;28;20049;-68
2022/07/06 10:15:40;;;;;;;4.55;1.25;;;;;;;29.10;39.09;99076.00;5006198;28;20067;-68
2022/07/06 10:18:25;;;;;;;2.10;1.40;;;;;;;30.66;38.36;99066.19;5013340;28;20092;-68
2022/07/06 10:21:10;;;;;;;1.45;1.00;;;;;;;31.16;39.86;99064.19;5037278;28;20061;-68
2022/07/06 10:23:59;;;;;;;3.03;1.33;;;;;;;29.87;35.36;99063.22;5018037;28;20140;-68
2022/07/06 10:26:45;;;;;;;1.40;1.05;;;;;;;29.68;39.54;99049.75;5032233;28;20140;-69
2022/07/06 10:29:32;;;;;;;2.33;1.05;;;;;;;30.78;35.53;99060.81;5044621;28;20045;-69
2022/07/06 10:32:22;;;;;;;1.60;1.08;;;;;;;30.93;38.71;99049.59;5016326;28;20049;-69
2022/07/06 10:35:08;;;;;;;;;;;;;;;30.38;36.90;99073.84;5018075;28;20050;-68
2022/07/06 10:38:09;;;;;;;2.00;1.20;;;;;;;29.65;36.11;99063.69;5032382;28;19921;-67
2022/07/06 10:41:03;;;;;;;2.28;0.70;;;;;;;30.69;37.00;99073.81;5025356;28;20038;-70
2022/07/06 10:43:48;;;;;;;1.50;0.93;;;;;;;30.69;37.67;99063.00;5026950;28;20486;-68
2022/07/06 10:46:34;;;;;;;1.50;0.98;;;;;;;29.57;38.00;99064.78;5020162;28;20438;-68
2022/07/06 10:49:19;;;;;;;2.83;1.05;;;;;;;28.69;43.94;99076.25;5030440;28;20038;-68
2022/07/06 10:52:05;;;;;;;1.33;0.88;;;;;;;28.30;39.36;99081.63;5027788;28;20041;-69
2022/07/06 10:54:56;;;;;;;3.65;1.17;;;;;;;27.17;42.52;99080.59;5024557;28;20420;-68
2022/07/06 10:57:52;;;;;;;1.20;1.10;;;;;;;26.95;44.11;99082.63;5013473;28;20120;-68
2022/07/06 11:00:52;;;;;;;2.90;1.17;;;;;;;28.22;41.11;99103.41;5030504;28;20095;-68
2022/07/06 11:03:48;;;;;;;1.40;1.00;;;;;;;26.98;43.71;99102.91;4997172;28;20162;-68
2022/07/06 11:06:39;;;;;;;2.55;0.85;;;;;;;28.06;43.67;99099.34;5025124;28;20049;-68
2022/07/06 11:09:32;;;;;;;2.45;1.20;;;;;;;27.53;42.18;99093.84;5024636;28;20120;-68
2022/07/06 11:12:19;;;;;;;3.20;1.13;;;;;;;26.97;46.34;99098.56;5029776;28;20107;-69
2022/07/06 11:15:04;;;;;;;1.88;0.90;;;;;;;27.34;46.17;99092.81;5030885;28;20116;-67
2022/07/06 11:18:12;;;;;;;2.45;1.08;;;;;;;27.03;43.01;99095.06;5031302;28;20072;-68
2022/07/06 11:21:15;;;;;;;1.50;1.00;;;;;;;27.91;42.04;99095.84;5035612;28;20037;-67
2022/07/06 11:24:00;;;;;;;1.63;0.90;;;;;;;28.95;40.37;99105.94;5018520;28;20045;-68
2022/07/06 11:26:47;;;;;;;3.05;0.93;;;;;;;30.27;40.25;99097.06;5017028;28;20049;-68
2022/07/06 11:29:38;;;;;;;2.75;0.90;;;;;;;29.24;37.44;99106.38;5030693;28;20104;-68
2022/07/06 11:32:25;;;;;;;3.28;1.00;;;;;;;29.36;38.55;99080.31;5011038;28;20042;-68
2022/07/06 11:35:22;;;;;;;4.03;0.90;;;;;;;29.72;37.21;99093.31;5028123;28;20512;-69
2022/07/06 11:38:26;;;;;;;1.83;0.93;;;;;;;30.35;34.92;99090.50;5043967;28;20541;-67
2022/07/06 11:41:13;;;;;;;1.20;0.82;;;;;;;31.02;33.36;99087.91;5016236;28;20042;-67
2022/07/06 11:43:58;;;;;;;3.80;0.90;;;;;;;28.56;40.59;99092.50;5031134;28;20037;-68
2022/07/06 11:46:43;;;;;;;1.15;0.88;;;;;;;28.25;41.82;99094.91;5043288;28;20048;-68
2022/07/06 11:49:29;;;;;;;1.17;0.90;;;;;;;27.21;42.66;99101.72;5029187;28;20049;-68
2022/07/06 11:52:14;;;;;;;2.08;1.00;;;;;;;27.55;38.81;99089.88;5023948;28;20068;-68
2022/07/06 11:55:02;;;;;;;1.88;0.80;;;;;;;27.34;42.03;99095.50;5022594;28;20041;-68
2022/07/06 11:57:47;;;;;;;1.50;0.93;;;;;;;27.36;45.52;99098.81;5027526;28;20053;-68
2022/07/06 12:00:31;;;;;;;1.40;0.80;;;;;;;26.59;42.36;99098.06;5023242;28;20048;-68
2022/07/06 12:03:16;;;;;;;1.65;0.82;;;;;;;26.47;43.31;99103.22;5034664;28;20041;-68
2022/07/06 12:06:07;;;;;;;2.13;0.93;;;;;;;26.94;43.69;99102.50;5032038;28;20041;-68
2022/07/06 12:08:54;;;;;;;1.25;1.05;;;;;;;26.79;44.12;99098.13;5024093;28;20053;-67
2022/07/06 12:11:40;;;;;;;1.38;1.00;;;;;;;26.90;44.68;99101.22;5033470;28;20518;-67
2022/07/06 12:14:25;;;;;;;1.33;0.88;;;;;;;29.26;37.14;99093.50;5034634;28;20045;-69
2022/07/06 12:17:15;;;;;;;1.38;0.80;;;;;;;30.26;40.09;99072.97;5013900;28;20045;-68
2022/07/06 12:19:59;;;;;;;1.58;0.95;;;;;;;29.11;35.43;99073.09;5030439;28;20049;-68
2022/07/06 12:22:44;;;;;;;1.38;1.00;;;;;;;27.25;39.99;99076.91;5022290;28;20042;-68
2022/07/06 12:25:34;;;;;;;1.95;0.93;;;;;;;26.86;42.65;99090.09;5000178;28;20056;-67
2022/07/06 12:28:22;;;;;;;1.58;0.90;;;;;;;26.36;43.81;99107.28;5028541;28;20061;-69
2022/07/06 12:31:07;;;;;;;2.08;1.00;;;;;;;25.82;46.24;99117.75;5032905;28;20045;-68
2022/07/06 12:33:58;;;;;;;2.28;0.82;;;;;;;24.80;49.11;99126.72;5004944;28;20061;-68
2022/07/06 12:36:55;;;;;;;1.35;1.00;;;;;;;23.86;51.88;99120.00;5046457;28;20457;-67
2022/07/06 12:39:44;;;;;;;1.75;1.00;;;;;;;24.10;51.18;99122.59;5022965;28;20524;-67
2022/07/06 12:42:29;;;;;;;1.92;1.25;;;;;;;22.94;54.17;99116.44;5014691;28;20048;-67
2022/07/06 12:45:14;;;;;;;2.22;1.15;;;;;;;22.24;60.23;99115.28;5031761;28;20069;-66
2022/07/06 12:48:00;;;;;;;15.80;1.55;;;;;;;22.66;57.42;99119.59;5033363;28;20239;-66
2022/07/06 12:50:46;;;;;;;1.70;1.10;;;;;;;22.99;57.57;99103.38;5017232;28;20088;-67
2022/07/06 12:53:31;;;;;;;1.23;1.10;;;;;;;23.06;57.43;99093.63;5034187;28;20060;-66
2022/07/06 12:56:17;;;;;;;1.50;1.00;;;;;;;22.82;58.59;99103.50;5040789;28;20042;-66
2022/07/06 12:59:02;;;;;;;1.67;1.10;;;;;;;23.05;59.59;99104.50;5027654;28;20052;-66
2022/07/06 13:01:50;;;;;;;1.35;0.80;;;;;;;23.73;56.38;99101.09;5025844;28;20125;-66
2022/07/06 13:04:36;;;;;;;2.60;1.15;;;;;;;26.12;49.72;99089.81;5022981;28;20604;-66
2022/07/06 13:07:20;;;;;;;1.60;1.00;;;;;;;26.10;49.23;99089.22;5021550;28;20046;-66
2022/07/06 13:10:10;;;;;;;2.33;1.27;;;;;;;25.59;51.35;99090.13;5032475;28;20448;-65
2022/07/06 13:12:55;;;;;;;2.33;0.90;;;;;;;25.91;51.40;99096.94;5031727;28;20037;-68